Terminal Aerodrome Forecast
Issued by NWS Boise, ID

Home | Current Version | Previous Version | Text Only | Print | Product List | Glossary On
Versions: 1 2 3 4 5 6 7 8 9 10 11 12 13 14 15 16 17 18 19
000
FTUS45 KBOI 030523
TAFBOI
TAF
KBOI 030523Z 0306/0406 14009KT P6SM OVC080
     FM031200 VRB06KT P6SM VCSH OVC050
     FM032000 31007KT P6SM SCT050 BKN100
     FM040200 13005KT P6SM BKN100=

USA.gov is the U.S. government's official web portal to all federal, state and local government web resources and services.